sensor_id;sensor_type;location;lat;lon;timestamp;temperature;humidity
21306;DHT22;10812;51.838;5.838;2022-08-03T00:01:33;21.10;99.90
21306;DHT22;10812;51.838;5.838;2022-08-03T00:04:01;21.10;99.90
21306;DHT22;10812;51.838;5.838;2022-08-03T00:06:30;21.00;99.90
21306;DHT22;10812;51.838;5.838;2022-08-03T00:09:03;21.00;99.90
21306;DHT22;10812;51.838;5.838;2022-08-03T00:11:34;20.90;99.90
21306;DHT22;10812;51.838;5.838;2022-08-03T00:14:02;20.90;99.90
21306;DHT22;10812;51.838;5.838;2022-08-03T00:16:30;20.80;99.90
21306;DHT22;10812;51.838;5.838;2022-08-03T00:18:58;20.90;99.90
21306;DHT22;10812;51.838;5.838;2022-08-03T00:21:27;20.90;99.90
21306;DHT22;10812;51.838;5.838;2022-08-03T00:23:55;20.80;99.90
21306;DHT22;10812;51.838;5.838;2022-08-03T00:26:23;20.80;99.90
21306;DHT22;10812;51.838;5.838;2022-08-03T00:28:53;20.70;99.90
21306;DHT22;10812;51.838;5.838;2022-08-03T00:31:21;20.70;99.90
21306;DHT22;10812;51.838;5.838;2022-08-03T00:34:09;20.70;99.90
21306;DHT22;10812;51.838;5.838;2022-08-03T00:36:38;20.60;99.90
21306;DHT22;10812;51.838;5.838;2022-08-03T00:39:06;20.60;99.90
21306;DHT22;10812;51.838;5.838;2022-08-03T00:41:35;20.60;99.90
21306;DHT22;10812;51.838;5.838;2022-08-03T00:44:04;20.50;99.90
21306;DHT22;10812;51.838;5.838;2022-08-03T00:46:32;20.50;99.90
21306;DHT22;10812;51.838;5.838;2022-08-03T00:49:01;20.50;99.90
21306;DHT22;10812;51.838;5.838;2022-08-03T00:51:29;20.50;99.90
21306;DHT22;10812;51.838;5.838;2022-08-03T00:53:58;20.50;99.90
21306;DHT22;10812;51.838;5.838;2022-08-03T00:56:26;20.40;99.90
21306;DHT22;10812;51.838;5.838;2022-08-03T00:58:56;20.40;99.90
21306;DHT22;10812;51.838;5.838;2022-08-03T01:01:26;20.40;99.90
21306;DHT22;10812;51.838;5.838;2022-08-03T01:03:58;20.40;99.90
21306;DHT22;10812;51.838;5.838;2022-08-03T01:06:34;20.30;99.90
21306;DHT22;10812;51.838;5.838;2022-08-03T01:09:11;20.30;99.90
21306;DHT22;10812;51.838;5.838;2022-08-03T01:11:47;20.30;99.90
21306;DHT22;10812;51.838;5.838;2022-08-03T01:14:32;20.30;99.90
21306;DHT22;10812;51.838;5.838;2022-08-03T01:17:07;20.30;99.90
21306;DHT22;10812;51.838;5.838;2022-08-03T01:19:48;20.20;99.90
21306;DHT22;10812;51.838;5.838;2022-08-03T01:22:40;20.20;99.90
21306;DHT22;10812;51.838;5.838;2022-08-03T01:25:19;20.20;99.90
21306;DHT22;10812;51.838;5.838;2022-08-03T01:27:56;20.10;99.90
21306;DHT22;10812;51.838;5.838;2022-08-03T01:30:31;20.10;99.90
21306;DHT22;10812;51.838;5.838;2022-08-03T01:33:03;20.00;99.90
21306;DHT22;10812;51.838;5.838;2022-08-03T01:35:35;20.00;99.90
21306;DHT22;10812;51.838;5.838;2022-08-03T01:38:10;20.00;99.90
21306;DHT22;10812;51.838;5.838;2022-08-03T01:40:40;20.00;99.90
21306;DHT22;10812;51.838;5.838;2022-08-03T01:43:12;20.00;99.90
21306;DHT22;10812;51.838;5.838;2022-08-03T01:46:03;19.90;99.90
21306;DHT22;10812;51.838;5.838;2022-08-03T01:48:32;19.90;99.90
21306;DHT22;10812;51.838;5.838;2022-08-03T01:51:03;19.90;99.90
21306;DHT22;10812;51.838;5.838;2022-08-03T01:53:33;19.90;99.90
21306;DHT22;10812;51.838;5.838;2022-08-03T01:56:03;19.90;99.90
21306;DHT22;10812;51.838;5.838;2022-08-03T01:58:33;19.80;99.90
21306;DHT22;10812;51.838;5.838;2022-08-03T02:01:04;19.80;99.90
21306;DHT22;10812;51.838;5.838;2022-08-03T02:03:35;19.70;99.90
21306;DHT22;10812;51.838;5.838;2022-08-03T02:06:24;19.70;99.90
21306;DHT22;10812;51.838;5.838;2022-08-03T02:09:14;19.70;99.90
21306;DHT22;10812;51.838;5.838;2022-08-03T02:11:44;19.70;99.90
21306;DHT22;10812;51.838;5.838;2022-08-03T02:14:14;19.70;99.90
21306;DHT22;10812;51.838;5.838;2022-08-03T02:16:44;19.60;99.90
21306;DHT22;10812;51.838;5.838;2022-08-03T02:19:13;19.60;99.90
21306;DHT22;10812;51.838;5.838;2022-08-03T02:21:44;19.60;99.90
21306;DHT22;10812;51.838;5.838;2022-08-03T02:24:23;19.50;99.90
21306;DHT22;10812;51.838;5.838;2022-08-03T02:26:54;19.50;99.90
21306;DHT22;10812;51.838;5.838;2022-08-03T02:29:24;19.50;99.90
21306;DHT22;10812;51.838;5.838;2022-08-03T02:32:09;19.50;99.90
21306;DHT22;10812;51.838;5.838;2022-08-03T02:34:40;19.50;99.90
21306;DHT22;10812;51.838;5.838;2022-08-03T02:44:09;19.50;99.90
21306;DHT22;10812;51.838;5.838;2022-08-03T02:46:40;19.50;99.90
21306;DHT22;10812;51.838;5.838;2022-08-03T02:49:13;19.40;99.90
21306;DHT22;10812;51.838;5.838;2022-08-03T02:52:08;19.40;99.90
21306;DHT22;10812;51.838;5.838;2022-08-03T02:54:42;19.40;99.90
21306;DHT22;10812;51.838;5.838;2022-08-03T02:57:11;19.40;99.90
21306;DHT22;10812;51.838;5.838;2022-08-03T02:59:41;19.40;99.90
21306;DHT22;10812;51.838;5.838;2022-08-03T03:07:33;19.30;99.90
21306;DHT22;10812;51.838;5.838;2022-08-03T03:10:18;19.30;99.90
21306;DHT22;10812;51.838;5.838;2022-08-03T03:12:48;19.30;99.90
21306;DHT22;10812;51.838;5.838;2022-08-03T03:15:17;19.30;99.90
21306;DHT22;10812;51.838;5.838;2022-08-03T03:17:46;19.30;99.90
21306;DHT22;10812;51.838;5.838;2022-08-03T03:20:14;19.30;99.90
21306;DHT22;10812;51.838;5.838;2022-08-03T03:22:58;19.30;99.90
21306;DHT22;10812;51.838;5.838;2022-08-03T03:25:27;19.30;99.90
21306;DHT22;10812;51.838;5.838;2022-08-03T03:36:08;19.30;99.90
21306;DHT22;10812;51.838;5.838;2022-08-03T03:38:38;19.30;99.90
21306;DHT22;10812;51.838;5.838;2022-08-03T03:41:06;19.30;99.90
21306;DHT22;10812;51.838;5.838;2022-08-03T03:43:34;19.30;99.90
21306;DHT22;10812;51.838;5.838;2022-08-03T03:46:02;19.30;99.90
21306;DHT22;10812;51.838;5.838;2022-08-03T03:48:33;19.30;99.90
21306;DHT22;10812;51.838;5.838;2022-08-03T03:51:01;19.30;99.90
21306;DHT22;10812;51.838;5.838;2022-08-03T03:53:30;19.30;99.90
21306;DHT22;10812;51.838;5.838;2022-08-03T03:55:59;19.20;99.90
21306;DHT22;10812;51.838;5.838;2022-08-03T03:58:30;19.20;99.90
21306;DHT22;10812;51.838;5.838;2022-08-03T04:00:58;19.20;99.90
21306;DHT22;10812;51.838;5.838;2022-08-03T04:03:27;19.20;99.90
21306;DHT22;10812;51.838;5.838;2022-08-03T04:05:55;19.20;99.90
21306;DHT22;10812;51.838;5.838;2022-08-03T04:08:41;19.20;99.90
21306;DHT22;10812;51.838;5.838;2022-08-03T04:11:33;19.20;99.90
21306;DHT22;10812;51.838;5.838;2022-08-03T04:14:05;19.20;99.90
21306;DHT22;10812;51.838;5.838;2022-08-03T04:16:36;19.20;99.90
21306;DHT22;10812;51.838;5.838;2022-08-03T04:19:12;19.20;99.90
21306;DHT22;10812;51.838;5.838;2022-08-03T04:21:49;19.20;99.90
21306;DHT22;10812;51.838;5.838;2022-08-03T04:24:20;19.20;99.90
21306;DHT22;10812;51.838;5.838;2022-08-03T04:26:55;19.20;99.90
21306;DHT22;10812;51.838;5.838;2022-08-03T04:29:25;19.20;99.90
21306;DHT22;10812;51.838;5.838;2022-08-03T04:31:53;19.30;99.90
21306;DHT22;10812;51.838;5.838;2022-08-03T04:34:22;19.30;99.90
21306;DHT22;10812;51.838;5.838;2022-08-03T04:36:54;19.40;99.90
21306;DHT22;10812;51.838;5.838;2022-08-03T04:39:26;19.40;99.90
21306;DHT22;10812;51.838;5.838;2022-08-03T04:41:57;19.50;99.90
21306;DHT22;10812;51.838;5.838;2022-08-03T04:44:36;19.50;99.90
21306;DHT22;10812;51.838;5.838;2022-08-03T04:47:06;19.60;99.90
21306;DHT22;10812;51.838;5.838;2022-08-03T04:49:35;19.60;99.90
21306;DHT22;10812;51.838;5.838;2022-08-03T04:52:05;19.70;99.90
21306;DHT22;10812;51.838;5.838;2022-08-03T04:54:38;19.70;99.90
21306;DHT22;10812;51.838;5.838;2022-08-03T04:57:09;19.80;99.90
21306;DHT22;10812;51.838;5.838;2022-08-03T04:59:48;19.80;99.90
21306;DHT22;10812;51.838;5.838;2022-08-03T05:02:27;19.90;99.90
21306;DHT22;10812;51.838;5.838;2022-08-03T05:04:56;19.90;99.90
21306;DHT22;10812;51.838;5.838;2022-08-03T05:07:24;19.90;99.90
21306;DHT22;10812;51.838;5.838;2022-08-03T05:10:03;20.00;99.90
21306;DHT22;10812;51.838;5.838;2022-08-03T05:12:46;20.00;99.90
21306;DHT22;10812;51.838;5.838;2022-08-03T05:15:14;20.00;99.90
21306;DHT22;10812;51.838;5.838;2022-08-03T05:17:43;20.00;99.90
21306;DHT22;10812;51.838;5.838;2022-08-03T05:20:11;20.00;99.90
21306;DHT22;10812;51.838;5.838;2022-08-03T05:22:44;20.10;99.90
21306;DHT22;10812;51.838;5.838;2022-08-03T05:25:12;20.10;99.90
21306;DHT22;10812;51.838;5.838;2022-08-03T05:27:46;20.20;99.90
21306;DHT22;10812;51.838;5.838;2022-08-03T05:30:15;20.20;99.90
21306;DHT22;10812;51.838;5.838;2022-08-03T05:33:00;20.30;99.90
21306;DHT22;10812;51.838;5.838;2022-08-03T05:35:28;20.40;99.90
21306;DHT22;10812;51.838;5.838;2022-08-03T05:38:16;20.50;99.90
21306;DHT22;10812;51.838;5.838;2022-08-03T05:40:55;20.50;99.90
21306;DHT22;10812;51.838;5.838;2022-08-03T05:43:44;20.60;99.90
21306;DHT22;10812;51.838;5.838;2022-08-03T05:46:13;20.70;99.90
21306;DHT22;10812;51.838;5.838;2022-08-03T05:48:41;20.80;99.90
21306;DHT22;10812;51.838;5.838;2022-08-03T05:51:09;20.90;99.90
21306;DHT22;10812;51.838;5.838;2022-08-03T05:53:38;20.90;99.90
21306;DHT22;10812;51.838;5.838;2022-08-03T05:56:07;21.00;99.90
21306;DHT22;10812;51.838;5.838;2022-08-03T05:58:43;21.10;99.90
21306;DHT22;10812;51.838;5.838;2022-08-03T06:01:12;21.20;99.90
21306;DHT22;10812;51.838;5.838;2022-08-03T06:03:40;21.30;99.90
21306;DHT22;10812;51.838;5.838;2022-08-03T06:06:08;21.40;99.90
21306;DHT22;10812;51.838;5.838;2022-08-03T06:08:37;21.50;99.90
21306;DHT22;10812;51.838;5.838;2022-08-03T06:11:05;21.60;99.90
21306;DHT22;10812;51.838;5.838;2022-08-03T06:13:33;21.80;99.90
21306;DHT22;10812;51.838;5.838;2022-08-03T06:16:03;22.40;99.90
21306;DHT22;10812;51.838;5.838;2022-08-03T06:18:32;24.40;99.90
21306;DHT22;10812;51.838;5.838;2022-08-03T06:21:00;26.30;99.90
21306;DHT22;10812;51.838;5.838;2022-08-03T06:23:43;28.10;99.90
21306;DHT22;10812;51.838;5.838;2022-08-03T06:26:24;29.40;99.90
21306;DHT22;10812;51.838;5.838;2022-08-03T06:28:54;30.00;99.90
21306;DHT22;10812;51.838;5.838;2022-08-03T06:31:25;30.00;99.90
21306;DHT22;10812;51.838;5.838;2022-08-03T06:34:00;30.50;99.90
21306;DHT22;10812;51.838;5.838;2022-08-03T06:36:48;31.20;98.50
21306;DHT22;10812;51.838;5.838;2022-08-03T06:39:18;32.10;96.70
21306;DHT22;10812;51.838;5.838;2022-08-03T06:41:50;31.70;96.30
21306;DHT22;10812;51.838;5.838;2022-08-03T06:44:18;31.40;96.50
21306;DHT22;10812;51.838;5.838;2022-08-03T06:46:48;31.60;95.90
21306;DHT22;10812;51.838;5.838;2022-08-03T06:49:16;32.40;95.20
21306;DHT22;10812;51.838;5.838;2022-08-03T06:51:45;32.50;94.40
21306;DHT22;10812;51.838;5.838;2022-08-03T06:54:32;32.70;94.30
21306;DHT22;10812;51.838;5.838;2022-08-03T06:57:01;33.00;93.80
21306;DHT22;10812;51.838;5.838;2022-08-03T06:59:30;33.20;93.40
21306;DHT22;10812;51.838;5.838;2022-08-03T07:02:19;33.00;92.90
21306;DHT22;10812;51.838;5.838;2022-08-03T07:04:47;33.00;92.70
21306;DHT22;10812;51.838;5.838;2022-08-03T07:07:15;32.90;92.80
21306;DHT22;10812;51.838;5.838;2022-08-03T07:09:45;33.60;92.10
21306;DHT22;10812;51.838;5.838;2022-08-03T07:12:24;33.80;92.20
21306;DHT22;10812;51.838;5.838;2022-08-03T07:14:52;34.10;91.90
21306;DHT22;10812;51.838;5.838;2022-08-03T07:17:29;34.00;91.50
21306;DHT22;10812;51.838;5.838;2022-08-03T07:19:57;33.90;91.30
21306;DHT22;10812;51.838;5.838;2022-08-03T07:22:26;33.50;91.00
21306;DHT22;10812;51.838;5.838;2022-08-03T07:24:54;33.00;91.50
21306;DHT22;10812;51.838;5.838;2022-08-03T07:27:23;33.60;91.60
21306;DHT22;10812;51.838;5.838;2022-08-03T07:29:52;33.30;91.40
21306;DHT22;10812;51.838;5.838;2022-08-03T07:32:21;33.70;91.50
21306;DHT22;10812;51.838;5.838;2022-08-03T07:34:50;34.30;90.90
21306;DHT22;10812;51.838;5.838;2022-08-03T07:37:26;34.40;90.90
21306;DHT22;10812;51.838;5.838;2022-08-03T07:39:54;34.40;90.20
21306;DHT22;10812;51.838;5.838;2022-08-03T07:42:22;33.40;90.80
21306;DHT22;10812;51.838;5.838;2022-08-03T07:44:51;33.50;90.70
21306;DHT22;10812;51.838;5.838;2022-08-03T07:47:19;33.70;90.80
21306;DHT22;10812;51.838;5.838;2022-08-03T07:49:49;33.10;90.60
21306;DHT22;10812;51.838;5.838;2022-08-03T07:52:18;33.70;90.80
21306;DHT22;10812;51.838;5.838;2022-08-03T07:55:04;34.00;90.70
21306;DHT22;10812;51.838;5.838;2022-08-03T07:57:33;34.80;89.70
21306;DHT22;10812;51.838;5.838;2022-08-03T08:00:02;34.00;90.00
21306;DHT22;10812;51.838;5.838;2022-08-03T08:02:31;32.90;90.40
21306;DHT22;10812;51.838;5.838;2022-08-03T08:05:00;33.00;91.30
21306;DHT22;10812;51.838;5.838;2022-08-03T08:07:31;34.40;90.10
21306;DHT22;10812;51.838;5.838;2022-08-03T08:10:00;34.10;88.50
21306;DHT22;10812;51.838;5.838;2022-08-03T08:12:28;34.10;88.70
21306;DHT22;10812;51.838;5.838;2022-08-03T08:14:56;34.30;89.40
21306;DHT22;10812;51.838;5.838;2022-08-03T08:17:24;33.70;89.70
21306;DHT22;10812;51.838;5.838;2022-08-03T08:19:52;33.40;89.80
21306;DHT22;10812;51.838;5.838;2022-08-03T08:22:22;33.90;90.10
21306;DHT22;10812;51.838;5.838;2022-08-03T08:24:56;33.50;89.70
21306;DHT22;10812;51.838;5.838;2022-08-03T08:27:25;33.70;89.50
21306;DHT22;10812;51.838;5.838;2022-08-03T08:29:53;34.20;88.80
21306;DHT22;10812;51.838;5.838;2022-08-03T08:32:30;34.40;87.80
21306;DHT22;10812;51.838;5.838;2022-08-03T08:34:58;34.60;87.70
21306;DHT22;10812;51.838;5.838;2022-08-03T08:37:27;34.20;87.80
21306;DHT22;10812;51.838;5.838;2022-08-03T08:39:56;34.60;87.40
21306;DHT22;10812;51.838;5.838;2022-08-03T08:42:24;35.20;86.80
21306;DHT22;10812;51.838;5.838;2022-08-03T08:44:52;35.30;86.20
21306;DHT22;10812;51.838;5.838;2022-08-03T08:47:23;34.30;85.70
21306;DHT22;10812;51.838;5.838;2022-08-03T08:49:52;34.80;85.50
21306;DHT22;10812;51.838;5.838;2022-08-03T08:52:39;34.40;85.70
21306;DHT22;10812;51.838;5.838;2022-08-03T08:55:09;34.30;87.40
21306;DHT22;10812;51.838;5.838;2022-08-03T08:57:41;34.00;86.70
21306;DHT22;10812;51.838;5.838;2022-08-03T09:00:12;34.30;86.40
21306;DHT22;10812;51.838;5.838;2022-08-03T09:02:41;34.80;85.60
21306;DHT22;10812;51.838;5.838;2022-08-03T09:05:09;34.60;85.50
21306;DHT22;10812;51.838;5.838;2022-08-03T09:07:41;33.90;86.40
21306;DHT22;10812;51.838;5.838;2022-08-03T09:10:10;34.80;85.10
21306;DHT22;10812;51.838;5.838;2022-08-03T09:12:43;35.10;84.60
21306;DHT22;10812;51.838;5.838;2022-08-03T09:15:21;35.20;84.10
21306;DHT22;10812;51.838;5.838;2022-08-03T09:17:52;35.70;84.20
21306;DHT22;10812;51.838;5.838;2022-08-03T09:20:21;35.00;84.10
21306;DHT22;10812;51.838;5.838;2022-08-03T09:22:56;34.90;84.70
21306;DHT22;10812;51.838;5.838;2022-08-03T09:25:32;34.90;84.80
21306;DHT22;10812;51.838;5.838;2022-08-03T09:28:05;35.60;83.50
21306;DHT22;10812;51.838;5.838;2022-08-03T09:30:34;35.30;83.80
21306;DHT22;10812;51.838;5.838;2022-08-03T09:33:04;35.50;83.70
21306;DHT22;10812;51.838;5.838;2022-08-03T09:35:40;35.40;84.00
21306;DHT22;10812;51.838;5.838;2022-08-03T09:38:25;35.90;82.30
21306;DHT22;10812;51.838;5.838;2022-08-03T09:40:54;35.60;82.10
21306;DHT22;10812;51.838;5.838;2022-08-03T09:43:26;35.20;82.90
21306;DHT22;10812;51.838;5.838;2022-08-03T09:46:02;35.30;82.30
21306;DHT22;10812;51.838;5.838;2022-08-03T09:48:31;35.30;82.30
21306;DHT22;10812;51.838;5.838;2022-08-03T09:51:02;35.60;82.40
21306;DHT22;10812;51.838;5.838;2022-08-03T09:53:52;35.20;82.10
21306;DHT22;10812;51.838;5.838;2022-08-03T09:56:41;35.20;83.50
21306;DHT22;10812;51.838;5.838;2022-08-03T09:59:11;36.10;81.20
21306;DHT22;10812;51.838;5.838;2022-08-03T10:01:39;35.40;81.00
21306;DHT22;10812;51.838;5.838;2022-08-03T10:04:12;35.20;82.20
21306;DHT22;10812;51.838;5.838;2022-08-03T10:06:43;35.00;82.30
21306;DHT22;10812;51.838;5.838;2022-08-03T10:09:14;35.80;81.30
21306;DHT22;10812;51.838;5.838;2022-08-03T10:11:43;35.90;80.90
21306;DHT22;10812;51.838;5.838;2022-08-03T10:14:12;34.90;81.00
21306;DHT22;10812;51.838;5.838;2022-08-03T10:16:46;34.90;81.80
21306;DHT22;10812;51.838;5.838;2022-08-03T10:19:14;34.40;82.10
21306;DHT22;10812;51.838;5.838;2022-08-03T10:21:48;34.70;82.40
21306;DHT22;10812;51.838;5.838;2022-08-03T10:24:24;35.30;81.40
21306;DHT22;10812;51.838;5.838;2022-08-03T10:26:55;35.30;80.70
21306;DHT22;10812;51.838;5.838;2022-08-03T10:29:28;34.30;82.60
21306;DHT22;10812;51.838;5.838;2022-08-03T10:32:00;34.60;81.40
21306;DHT22;10812;51.838;5.838;2022-08-03T10:34:34;34.10;83.30
21306;DHT22;10812;51.838;5.838;2022-08-03T10:37:10;34.10;83.10
21306;DHT22;10812;51.838;5.838;2022-08-03T10:39:42;33.50;83.80
21306;DHT22;10812;51.838;5.838;2022-08-03T10:42:20;33.40;83.90
21306;DHT22;10812;51.838;5.838;2022-08-03T10:44:57;33.50;85.00
21306;DHT22;10812;51.838;5.838;2022-08-03T10:47:28;33.70;83.20
21306;DHT22;10812;51.838;5.838;2022-08-03T10:49:57;34.20;82.80
21306;DHT22;10812;51.838;5.838;2022-08-03T10:52:26;34.40;83.00
21306;DHT22;10812;51.838;5.838;2022-08-03T10:55:28;33.90;82.00
21306;DHT22;10812;51.838;5.838;2022-08-03T10:58:14;33.50;83.70
21306;DHT22;10812;51.838;5.838;2022-08-03T11:00:56;33.50;83.50
21306;DHT22;10812;51.838;5.838;2022-08-03T11:03:24;33.40;84.40
21306;DHT22;10812;51.838;5.838;2022-08-03T11:05:52;33.30;83.90
21306;DHT22;10812;51.838;5.838;2022-08-03T11:08:40;33.00;84.40
21306;DHT22;10812;51.838;5.838;2022-08-03T11:11:25;32.60;83.50
21306;DHT22;10812;51.838;5.838;2022-08-03T11:13:57;32.60;84.70
21306;DHT22;10812;51.838;5.838;2022-08-03T11:16:26;32.70;85.40
21306;DHT22;10812;51.838;5.838;2022-08-03T11:18:55;32.80;84.60
21306;DHT22;10812;51.838;5.838;2022-08-03T11:24:58;32.20;84.30
21306;DHT22;10812;51.838;5.838;2022-08-03T11:27:30;32.40;85.30
21306;DHT22;10812;51.838;5.838;2022-08-03T11:30:01;32.60;84.90
21306;DHT22;10812;51.838;5.838;2022-08-03T11:32:57;32.40;85.00
21306;DHT22;10812;51.838;5.838;2022-08-03T11:35:27;32.40;84.20
21306;DHT22;10812;51.838;5.838;2022-08-03T11:38:04;32.40;83.70
21306;DHT22;10812;51.838;5.838;2022-08-03T11:40:35;32.30;84.20
21306;DHT22;10812;51.838;5.838;2022-08-03T11:43:08;32.60;83.40
21306;DHT22;10812;51.838;5.838;2022-08-03T11:45:36;32.50;82.70
21306;DHT22;10812;51.838;5.838;2022-08-03T11:48:15;32.60;83.00
21306;DHT22;10812;51.838;5.838;2022-08-03T11:50:43;33.00;83.50
21306;DHT22;10812;51.838;5.838;2022-08-03T11:53:14;32.60;83.30
21306;DHT22;10812;51.838;5.838;2022-08-03T11:55:43;32.30;84.30
21306;DHT22;10812;51.838;5.838;2022-08-03T11:58:17;32.40;84.80
21306;DHT22;10812;51.838;5.838;2022-08-03T12:01:06;32.00;83.80
21306;DHT22;10812;51.838;5.838;2022-08-03T12:03:37;31.90;84.30
21306;DHT22;10812;51.838;5.838;2022-08-03T12:06:08;32.30;84.30
21306;DHT22;10812;51.838;5.838;2022-08-03T12:08:37;32.50;84.10
21306;DHT22;10812;51.838;5.838;2022-08-03T12:11:08;32.80;83.80
21306;DHT22;10812;51.838;5.838;2022-08-03T12:13:40;32.50;83.30
21306;DHT22;10812;51.838;5.838;2022-08-03T12:16:28;32.60;83.60
21306;DHT22;10812;51.838;5.838;2022-08-03T12:18:58;32.40;83.60
21306;DHT22;10812;51.838;5.838;2022-08-03T12:21:27;32.40;84.70
21306;DHT22;10812;51.838;5.838;2022-08-03T12:23:56;32.40;82.50
21306;DHT22;10812;51.838;5.838;2022-08-03T12:26:27;32.30;83.70
21306;DHT22;10812;51.838;5.838;2022-08-03T12:28:56;32.30;83.90
21306;DHT22;10812;51.838;5.838;2022-08-03T12:31:25;32.30;82.90
21306;DHT22;10812;51.838;5.838;2022-08-03T12:34:00;32.30;83.20
21306;DHT22;10812;51.838;5.838;2022-08-03T12:36:31;32.30;83.20
21306;DHT22;10812;51.838;5.838;2022-08-03T12:39:01;32.30;82.90
21306;DHT22;10812;51.838;5.838;2022-08-03T12:41:31;32.20;83.30
21306;DHT22;10812;51.838;5.838;2022-08-03T12:44:02;32.20;83.80
21306;DHT22;10812;51.838;5.838;2022-08-03T12:46:32;32.10;83.30
21306;DHT22;10812;51.838;5.838;2022-08-03T12:49:08;32.00;83.50
21306;DHT22;10812;51.838;5.838;2022-08-03T12:51:55;32.00;83.20
21306;DHT22;10812;51.838;5.838;2022-08-03T12:54:25;32.20;82.90
21306;DHT22;10812;51.838;5.838;2022-08-03T12:56:57;32.30;82.60
21306;DHT22;10812;51.838;5.838;2022-08-03T12:59:30;31.90;82.40
21306;DHT22;10812;51.838;5.838;2022-08-03T13:02:14;32.20;83.60
21306;DHT22;10812;51.838;5.838;2022-08-03T13:04:44;32.30;83.20
21306;DHT22;10812;51.838;5.838;2022-08-03T13:07:14;32.20;83.40
21306;DHT22;10812;51.838;5.838;2022-08-03T13:09:45;32.10;83.30
21306;DHT22;10812;51.838;5.838;2022-08-03T13:12:15;32.00;84.10
21306;DHT22;10812;51.838;5.838;2022-08-03T13:14:46;31.80;85.00
21306;DHT22;10812;51.838;5.838;2022-08-03T13:17:14;32.00;84.60
21306;DHT22;10812;51.838;5.838;2022-08-03T13:19:44;31.80;84.80
21306;DHT22;10812;51.838;5.838;2022-08-03T13:22:14;31.90;84.70
21306;DHT22;10812;51.838;5.838;2022-08-03T13:24:44;31.90;84.70
21306;DHT22;10812;51.838;5.838;2022-08-03T13:27:13;31.90;84.90
21306;DHT22;10812;51.838;5.838;2022-08-03T13:30:03;31.70;85.40
21306;DHT22;10812;51.838;5.838;2022-08-03T13:32:32;31.80;85.20
21306;DHT22;10812;51.838;5.838;2022-08-03T13:35:00;31.70;85.00
21306;DHT22;10812;51.838;5.838;2022-08-03T13:37:29;31.60;85.40
21306;DHT22;10812;51.838;5.838;2022-08-03T13:39:58;31.50;85.50
21306;DHT22;10812;51.838;5.838;2022-08-03T13:42:30;31.70;86.00
21306;DHT22;10812;51.838;5.838;2022-08-03T13:44:58;31.90;86.30
21306;DHT22;10812;51.838;5.838;2022-08-03T13:47:28;32.00;86.10
21306;DHT22;10812;51.838;5.838;2022-08-03T13:49:56;32.00;85.80
21306;DHT22;10812;51.838;5.838;2022-08-03T13:52:29;32.00;86.60
21306;DHT22;10812;51.838;5.838;2022-08-03T13:54:58;32.00;86.20
21306;DHT22;10812;51.838;5.838;2022-08-03T13:57:26;32.00;86.70
21306;DHT22;10812;51.838;5.838;2022-08-03T14:00:16;32.10;86.70
21306;DHT22;10812;51.838;5.838;2022-08-03T14:02:58;32.00;86.80
21306;DHT22;10812;51.838;5.838;2022-08-03T14:05:39;31.90;87.50
21306;DHT22;10812;51.838;5.838;2022-08-03T14:08:07;31.70;87.50
21306;DHT22;10812;51.838;5.838;2022-08-03T14:10:37;31.70;87.70
21306;DHT22;10812;51.838;5.838;2022-08-03T14:13:05;31.80;87.70
21306;DHT22;10812;51.838;5.838;2022-08-03T14:15:33;31.80;87.60
21306;DHT22;10812;51.838;5.838;2022-08-03T14:18:06;31.70;87.80
21306;DHT22;10812;51.838;5.838;2022-08-03T14:20:41;31.60;88.10
21306;DHT22;10812;51.838;5.838;2022-08-03T14:23:16;31.50;88.40
21306;DHT22;10812;51.838;5.838;2022-08-03T14:25:44;31.40;88.80
21306;DHT22;10812;51.838;5.838;2022-08-03T14:28:19;31.40;88.60
21306;DHT22;10812;51.838;5.838;2022-08-03T14:30:49;31.50;89.10
21306;DHT22;10812;51.838;5.838;2022-08-03T14:33:19;31.60;89.50
21306;DHT22;10812;51.838;5.838;2022-08-03T14:35:47;31.40;89.40
21306;DHT22;10812;51.838;5.838;2022-08-03T14:38:16;31.30;89.40
21306;DHT22;10812;51.838;5.838;2022-08-03T14:40:48;31.30;89.00
21306;DHT22;10812;51.838;5.838;2022-08-03T14:43:16;31.20;89.30
21306;DHT22;10812;51.838;5.838;2022-08-03T14:45:46;31.30;89.10
21306;DHT22;10812;51.838;5.838;2022-08-03T14:48:14;31.30;89.20
21306;DHT22;10812;51.838;5.838;2022-08-03T14:51:04;31.50;89.00
21306;DHT22;10812;51.838;5.838;2022-08-03T14:53:33;31.60;89.40
21306;DHT22;10812;51.838;5.838;2022-08-03T14:56:01;31.70;89.50
21306;DHT22;10812;51.838;5.838;2022-08-03T14:58:36;31.60;89.10
21306;DHT22;10812;51.838;5.838;2022-08-03T15:01:04;31.50;88.90
21306;DHT22;10812;51.838;5.838;2022-08-03T15:03:53;31.60;89.00
21306;DHT22;10812;51.838;5.838;2022-08-03T15:06:22;31.40;89.20
21306;DHT22;10812;51.838;5.838;2022-08-03T15:08:50;31.40;89.20
21306;DHT22;10812;51.838;5.838;2022-08-03T15:11:39;31.30;89.50
21306;DHT22;10812;51.838;5.838;2022-08-03T15:14:07;31.40;89.60
21306;DHT22;10812;51.838;5.838;2022-08-03T15:16:35;31.60;89.00
21306;DHT22;10812;51.838;5.838;2022-08-03T15:19:04;31.50;88.40
21306;DHT22;10812;51.838;5.838;2022-08-03T15:21:53;31.60;88.70
21306;DHT22;10812;51.838;5.838;2022-08-03T15:24:21;31.50;89.30
21306;DHT22;10812;51.838;5.838;2022-08-03T15:26:50;31.50;89.20
21306;DHT22;10812;51.838;5.838;2022-08-03T15:29:19;31.60;89.70
21306;DHT22;10812;51.838;5.838;2022-08-03T15:32:07;31.60;89.70
21306;DHT22;10812;51.838;5.838;2022-08-03T15:34:35;31.50;89.70
21306;DHT22;10812;51.838;5.838;2022-08-03T15:37:05;31.50;90.10
21306;DHT22;10812;51.838;5.838;2022-08-03T15:39:41;31.50;89.90
21306;DHT22;10812;51.838;5.838;2022-08-03T15:42:26;31.60;90.00
21306;DHT22;10812;51.838;5.838;2022-08-03T15:44:54;31.50;90.00
21306;DHT22;10812;51.838;5.838;2022-08-03T15:47:22;31.50;90.00
21306;DHT22;10812;51.838;5.838;2022-08-03T15:49:50;31.70;89.60
21306;DHT22;10812;51.838;5.838;2022-08-03T15:52:20;31.80;89.30
21306;DHT22;10812;51.838;5.838;2022-08-03T15:54:48;31.70;89.40
21306;DHT22;10812;51.838;5.838;2022-08-03T15:57:16;31.60;89.80
21306;DHT22;10812;51.838;5.838;2022-08-03T15:59:45;31.70;90.00
21306;DHT22;10812;51.838;5.838;2022-08-03T16:02:13;31.60;89.90
21306;DHT22;10812;51.838;5.838;2022-08-03T16:04:41;31.50;90.00
21306;DHT22;10812;51.838;5.838;2022-08-03T16:07:09;31.20;90.20
21306;DHT22;10812;51.838;5.838;2022-08-03T16:09:40;31.20;90.40
21306;DHT22;10812;51.838;5.838;2022-08-03T16:12:10;31.30;90.20
21306;DHT22;10812;51.838;5.838;2022-08-03T16:14:43;31.20;90.30
21306;DHT22;10812;51.838;5.838;2022-08-03T16:17:19;31.10;90.30
21306;DHT22;10812;51.838;5.838;2022-08-03T16:19:48;31.00;90.40
21306;DHT22;10812;51.838;5.838;2022-08-03T16:22:21;31.00;90.50
21306;DHT22;10812;51.838;5.838;2022-08-03T16:24:51;31.00;90.60
21306;DHT22;10812;51.838;5.838;2022-08-03T16:27:20;31.00;90.60